createdAt,value
2022-11-04T00:00:49.500Z,17.61
2022-11-04T00:01:45.473Z,18.96
2022-11-04T00:02:40.465Z,19.76
2022-11-04T00:03:21.486Z,17.91
2022-11-04T00:04:01.506Z,17.65
2022-11-04T00:04:44.455Z,18.51
2022-11-04T00:05:26.525Z,17.85
2022-11-04T00:06:13.023Z,16.96
2022-11-04T00:06:54.516Z,17.25
2022-11-04T00:07:53.514Z,18.50
2022-11-04T00:08:41.481Z,20.70
2022-11-04T00:09:39.458Z,19.92
2022-11-04T00:10:53.462Z,19.01
2022-11-04T00:12:05.440Z,16.75
2022-11-04T00:13:00.821Z,16.66
2022-11-04T00:13:54.499Z,17.71
2022-11-04T00:14:49.471Z,18.23
2022-11-04T00:16:01.477Z,18.42
2022-11-04T00:17:14.417Z,18.16
2022-11-04T00:18:13.706Z,17.76
2022-11-04T00:19:07.463Z,17.64
2022-11-04T00:20:49.460Z,17.89
2022-11-04T00:22:01.453Z,17.63
2022-11-04T00:23:14.459Z,18.56
2022-11-04T00:24:26.432Z,18.98
2022-11-04T00:25:58.430Z,19.19
2022-11-04T00:27:10.417Z,19.71
2022-11-04T00:28:22.425Z,19.30
2022-11-04T00:29:16.431Z,20.92
2022-11-04T00:29:56.418Z,21.24
2022-11-04T00:30:36.499Z,19.44
2022-11-04T00:31:36.395Z,19.65
2022-11-04T00:32:36.005Z,20.35
2022-11-04T00:33:34.429Z,20.66
2022-11-04T00:34:14.484Z,19.77
2022-11-04T00:34:54.416Z,19.90
2022-11-04T00:35:34.415Z,20.26
2022-11-04T00:36:08.505Z,18.96
2022-11-04T00:36:55.398Z,20.89
2022-11-04T00:37:29.491Z,20.64
2022-11-04T00:38:16.433Z,21.34
2022-11-04T00:38:50.539Z,22.40
2022-11-04T00:39:37.447Z,23.31
2022-11-04T00:40:19.547Z,23.98
2022-11-04T00:41:32.409Z,22.76
2022-11-04T00:42:26.409Z,23.59
2022-11-04T00:43:20.419Z,23.77
2022-11-04T00:44:17.406Z,22.29
2022-11-04T00:45:11.411Z,20.10
2022-11-04T00:45:51.460Z,22.06
2022-11-04T00:46:32.499Z,21.70
2022-11-04T00:47:12.395Z,21.96
2022-11-04T00:47:52.492Z,20.85
2022-11-04T00:48:32.411Z,19.64
2022-11-04T00:49:13.076Z,21.70
2022-11-04T00:49:53.390Z,20.34
2022-11-04T00:50:33.469Z,20.51
2022-11-04T00:51:58.467Z,19.04
2022-11-04T00:52:45.406Z,18.91
2022-11-04T00:53:19.379Z,21.27
2022-11-04T00:54:07.422Z,20.88
2022-11-04T00:54:41.152Z,18.73
2022-11-04T00:55:29.379Z,18.04
2022-11-04T00:56:03.127Z,19.25
2022-11-04T00:56:47.407Z,19.48
2022-11-04T00:57:21.459Z,19.74
2022-11-04T00:57:58.156Z,19.81
2022-11-04T00:58:38.417Z,18.09
2022-11-04T00:59:14.645Z,18.46
2022-11-04T00:59:49.126Z,17.98
2022-11-04T01:00:30.386Z,17.31
2022-11-04T01:01:04.533Z,18.61
2022-11-04T01:01:38.257Z,18.25
2022-11-04T01:02:20.506Z,17.06
2022-11-04T01:02:54.548Z,16.39
2022-11-04T01:03:28.223Z,16.92
2022-11-04T01:04:09.387Z,17.86
2022-11-04T01:04:43.466Z,18.38
2022-11-04T01:05:18.120Z,16.96
2022-11-04T01:05:58.425Z,17.09
2022-11-04T01:06:33.477Z,18.26
2022-11-04T01:07:07.373Z,18.65
2022-11-04T01:07:47.405Z,18.64
2022-11-04T01:08:21.471Z,17.98
2022-11-04T01:09:14.379Z,18.61
2022-11-04T01:09:48.460Z,18.61
2022-11-04T01:10:35.355Z,19.39
2022-11-04T01:11:11.465Z,20.24
2022-11-04T01:11:59.392Z,20.41
2022-11-04T01:12:33.478Z,22.73
2022-11-04T01:13:13.397Z,19.95
2022-11-04T01:13:53.498Z,20.19
2022-11-04T01:14:33.378Z,19.58
2022-11-04T01:15:14.432Z,19.60
2022-11-04T01:15:54.390Z,18.71
2022-11-04T01:16:35.579Z,17.66
2022-11-04T01:17:15.447Z,17.73
2022-11-04T01:17:55.466Z,18.58
2022-11-04T01:18:36.419Z,20.11
2022-11-04T01:19:17.448Z,19.41
2022-11-04T01:19:58.371Z,19.24
2022-11-04T01:20:39.460Z,19.02
2022-11-04T01:21:21.376Z,19.46
2022-11-04T01:22:01.446Z,17.89
2022-11-04T01:22:42.408Z,18.59
2022-11-04T01:23:22.457Z,18.63
2022-11-04T01:24:02.366Z,19.99
2022-11-04T01:24:42.439Z,20.09
2022-11-04T01:25:23.374Z,17.75
2022-11-04T01:26:03.450Z,19.60
2022-11-04T01:26:43.370Z,19.76
2022-11-04T01:27:23.476Z,19.38
2022-11-04T01:28:03.430Z,18.98
2022-11-04T01:28:43.435Z,18.49
2022-11-04T01:29:23.363Z,18.75
2022-11-04T01:30:03.409Z,19.26
2022-11-04T01:30:46.391Z,18.04
2022-11-04T01:31:29.454Z,17.39
2022-11-04T01:32:09.369Z,18.00
2022-11-04T01:32:49.463Z,17.41
2022-11-04T01:33:31.373Z,17.69
2022-11-04T01:34:11.512Z,18.50
2022-11-04T01:34:53.432Z,19.96
2022-11-04T01:35:33.410Z,19.79
2022-11-04T01:36:15.334Z,19.94
2022-11-04T01:36:55.409Z,18.46
2022-11-04T01:37:35.564Z,16.68
2022-11-04T01:38:15.438Z,15.95
2022-11-04T01:38:55.372Z,15.50
2022-11-04T01:39:35.439Z,16.04
2022-11-04T01:40:16.377Z,17.61
2022-11-04T01:40:56.436Z,17.08
2022-11-04T01:41:39.370Z,16.40
2022-11-04T01:42:21.449Z,17.66
2022-11-04T01:43:01.320Z,16.80
2022-11-04T01:44:00.452Z,16.11
2022-11-04T01:44:58.393Z,17.45
2022-11-04T01:45:39.063Z,17.10
2022-11-04T01:46:13.437Z,18.24
2022-11-04T01:47:01.336Z,18.66
2022-11-04T01:48:04.415Z,18.40
2022-11-04T01:48:52.327Z,19.40
2022-11-04T01:49:43.830Z,19.31
2022-11-04T01:50:35.338Z,18.13
2022-11-04T01:51:16.354Z,17.61
2022-11-04T01:52:19.347Z,19.24
2022-11-04T01:53:27.353Z,19.84
2022-11-04T01:54:22.355Z,18.71
2022-11-04T01:55:23.332Z,19.30
2022-11-04T01:56:21.351Z,19.38
2022-11-04T01:57:17.342Z,19.01
2022-11-04T01:58:23.351Z,19.95
2022-11-04T01:59:23.335Z,19.98
2022-11-04T02:00:21.345Z,18.89
2022-11-04T02:01:15.410Z,18.44
2022-11-04T02:01:56.459Z,18.39
2022-11-04T02:02:37.476Z,17.77
2022-11-04T02:03:27.347Z,17.92
2022-11-04T02:04:33.352Z,18.26
2022-11-04T02:05:27.327Z,19.98
2022-11-04T02:06:21.309Z,19.73
2022-11-04T02:07:18.379Z,17.45
2022-11-04T02:08:13.320Z,17.14
2022-11-04T02:09:07.306Z,17.45
2022-11-04T02:10:01.347Z,17.83
2022-11-04T02:11:02.324Z,17.33
2022-11-04T02:12:14.339Z,17.61
2022-11-04T02:12:58.347Z,18.11
2022-11-04T02:13:40.404Z,18.11
2022-11-04T02:14:20.325Z,16.98
2022-11-04T02:15:01.399Z,18.39
2022-11-04T02:16:10.320Z,17.46
2022-11-04T02:16:52.382Z,16.58
2022-11-04T02:18:07.543Z,17.61
2022-11-04T02:19:25.401Z,18.67
2022-11-04T02:20:24.334Z,18.20
2022-11-04T02:21:25.402Z,18.91
2022-11-04T02:22:55.328Z,17.69
2022-11-04T02:24:40.345Z,17.41
2022-11-04T02:25:38.385Z,17.19
2022-11-04T02:27:29.295Z,16.58
2022-11-04T02:28:36.420Z,16.99
2022-11-04T02:29:49.339Z,18.49
2022-11-04T02:30:25.361Z,16.59
2022-11-04T02:31:26.288Z,17.09
2022-11-04T02:32:43.502Z,18.36
2022-11-04T02:34:18.277Z,17.08
2022-11-04T02:35:22.358Z,16.49
2022-11-04T02:36:46.301Z,16.94
2022-11-04T02:39:08.287Z,16.23
2022-11-04T02:40:27.333Z,17.96
2022-11-04T02:41:46.308Z,18.17
2022-11-04T02:43:09.664Z,16.33
2022-11-04T02:44:25.299Z,16.61
2022-11-04T02:45:56.882Z,16.71
2022-11-04T02:47:06.308Z,17.46
2022-11-04T02:48:08.296Z,17.92
2022-11-04T02:49:40.299Z,16.88
2022-11-04T02:50:48.286Z,17.14
2022-11-04T02:51:36.332Z,16.50
2022-11-04T02:52:39.352Z,17.95
2022-11-04T02:53:32.294Z,19.48
2022-11-04T02:54:48.368Z,18.27
2022-11-04T02:55:34.310Z,16.96
2022-11-04T02:56:15.355Z,15.65
2022-11-04T02:56:58.309Z,17.04
2022-11-04T02:57:42.344Z,18.77
2022-11-04T02:58:32.290Z,16.92
2022-11-04T02:59:19.361Z,16.35
2022-11-04T03:00:16.256Z,16.42
2022-11-04T03:00:58.499Z,16.74
2022-11-04T03:01:43.422Z,18.66
2022-11-04T03:02:35.317Z,19.75
2022-11-04T03:03:29.372Z,17.26
2022-11-04T03:04:22.304Z,18.48
2022-11-04T03:04:58.629Z,17.65
2022-11-04T03:05:48.281Z,17.11
2022-11-04T03:06:25.379Z,17.09
2022-11-04T03:07:16.270Z,17.10
2022-11-04T03:07:58.283Z,18.36
2022-11-04T03:08:57.303Z,18.63
2022-11-04T03:09:54.280Z,18.84
2022-11-04T03:10:54.264Z,17.67
2022-11-04T03:11:49.274Z,16.52
2022-11-04T03:12:53.254Z,17.01
2022-11-04T03:13:46.287Z,17.17
2022-11-04T03:14:33.340Z,16.75
2022-11-04T03:15:19.280Z,18.21
2022-11-04T03:16:06.373Z,17.17
2022-11-04T03:16:56.296Z,16.15
2022-11-04T03:17:42.336Z,17.48
2022-11-04T03:18:31.282Z,18.13
2022-11-04T03:19:43.300Z,16.69
2022-11-04T03:20:24.362Z,15.93
2022-11-04T03:21:15.252Z,15.52
2022-11-04T03:22:01.357Z,17.00
2022-11-04T03:22:48.279Z,16.52
2022-11-04T03:23:22.348Z,18.15
2022-11-04T03:24:11.261Z,18.88
2022-11-04T03:24:53.287Z,19.48
2022-11-04T03:25:53.420Z,18.41
2022-11-04T03:27:09.238Z,17.11
2022-11-04T03:28:13.256Z,17.65
2022-11-04T03:29:35.238Z,18.55
2022-11-04T03:30:20.289Z,17.25
2022-11-04T03:31:04.375Z,17.89
2022-11-04T03:32:13.277Z,17.69
2022-11-04T03:33:20.394Z,16.66
2022-11-04T03:34:02.231Z,17.96
2022-11-04T03:34:44.320Z,18.08
2022-11-04T03:35:25.268Z,17.26
2022-11-04T03:36:06.035Z,17.64
2022-11-04T03:36:47.262Z,18.44
2022-11-04T03:37:27.346Z,15.34
2022-11-04T03:38:07.229Z,16.11
2022-11-04T03:38:47.352Z,18.80
2022-11-04T03:39:27.239Z,17.50
2022-11-04T03:40:08.347Z,16.88
2022-11-04T03:40:49.279Z,17.20
2022-11-04T03:41:47.363Z,17.25
2022-11-04T03:42:28.260Z,17.33
2022-11-04T03:43:30.421Z,18.88
2022-11-04T03:44:11.245Z,18.01
2022-11-04T03:44:51.320Z,16.45
2022-11-04T03:45:32.235Z,15.14
2022-11-04T03:46:12.322Z,16.44
2022-11-04T03:46:47.328Z,18.45
2022-11-04T03:47:36.236Z,17.15
2022-11-04T03:48:10.361Z,16.14
2022-11-04T03:49:00.258Z,17.56
2022-11-04T03:49:34.295Z,18.33
2022-11-04T03:50:39.213Z,17.63
2022-11-04T03:51:20.253Z,17.83
2022-11-04T03:52:14.231Z,17.11
2022-11-04T03:53:09.576Z,17.25
2022-11-04T03:54:03.250Z,17.21
2022-11-04T03:54:58.292Z,17.09
2022-11-04T03:56:32.270Z,16.96
2022-11-04T03:57:33.223Z,17.74
2022-11-04T03:58:40.235Z,16.96
2022-11-04T04:00:23.265Z,16.66
2022-11-04T04:01:59.356Z,16.50
2022-11-04T04:03:34.240Z,16.77
2022-11-04T04:04:43.252Z,17.27
2022-11-04T04:05:40.216Z,17.09
2022-11-04T04:06:40.189Z,16.44
2022-11-04T04:07:25.269Z,17.44
2022-11-04T04:08:26.312Z,16.75
2022-11-04T04:09:22.293Z,17.89
2022-11-04T04:10:37.123Z,15.76
2022-11-04T04:11:36.224Z,16.59
2022-11-04T04:12:41.219Z,18.48
2022-11-04T04:13:44.228Z,16.13
2022-11-04T04:15:03.229Z,16.26
2022-11-04T04:16:13.210Z,16.29
2022-11-04T04:18:06.487Z,18.24
2022-11-04T04:18:54.174Z,18.58
2022-11-04T04:19:45.173Z,17.85
2022-11-04T04:20:25.307Z,17.52
2022-11-04T04:21:16.198Z,17.71
2022-11-04T04:21:59.474Z,16.40
2022-11-04T04:23:38.236Z,17.33
2022-11-04T04:24:33.008Z,17.86
2022-11-04T04:25:40.184Z,18.79
2022-11-04T04:26:33.655Z,18.84
2022-11-04T04:27:39.221Z,18.45
2022-11-04T04:28:13.268Z,19.27
2022-11-04T04:29:02.227Z,17.51
2022-11-04T04:29:36.255Z,15.48
2022-11-04T04:30:24.181Z,17.92
2022-11-04T04:31:04.337Z,18.73
2022-11-04T04:31:57.187Z,17.00
2022-11-04T04:32:51.250Z,17.06
2022-11-04T04:33:31.187Z,17.77
2022-11-04T04:34:19.210Z,18.84
2022-11-04T04:35:12.877Z,17.16
2022-11-04T04:36:10.189Z,17.04
2022-11-04T04:37:02.434Z,17.38
2022-11-04T04:37:49.411Z,16.36
2022-11-04T04:38:44.605Z,17.70
2022-11-04T04:39:54.234Z,18.39
2022-11-04T04:40:48.095Z,19.34
2022-11-04T04:42:03.199Z,16.19
2022-11-04T04:42:56.339Z,15.90
2022-11-04T04:44:01.170Z,16.85
2022-11-04T04:44:53.672Z,17.02
2022-11-04T04:45:43.191Z,17.31
2022-11-04T04:46:23.255Z,17.96
2022-11-04T04:47:05.193Z,16.73
2022-11-04T04:47:52.522Z,16.42
2022-11-04T04:48:32.166Z,16.98
2022-11-04T04:49:14.237Z,17.66
2022-11-04T04:50:05.163Z,16.50
2022-11-04T04:50:58.306Z,16.99
2022-11-04T04:51:32.026Z,17.05
2022-11-04T04:52:21.164Z,16.39
2022-11-04T04:52:57.178Z,18.00
2022-11-04T04:53:44.206Z,16.40
2022-11-04T04:54:17.868Z,16.36
2022-11-04T04:55:05.173Z,17.58
2022-11-04T04:55:41.674Z,17.26
2022-11-04T04:56:22.171Z,16.54
2022-11-04T04:56:56.252Z,17.25
2022-11-04T04:57:29.977Z,15.86
2022-11-04T04:58:10.136Z,16.36
2022-11-04T04:58:44.203Z,17.60
2022-11-04T04:59:18.012Z,17.74
2022-11-04T04:59:58.159Z,16.51
2022-11-04T05:00:39.422Z,16.21
2022-11-04T05:01:20.293Z,17.74
2022-11-04T05:02:00.367Z,18.04
2022-11-04T05:02:34.349Z,18.00
2022-11-04T05:03:08.239Z,18.34
2022-11-04T05:03:48.163Z,17.13
2022-11-04T05:04:22.242Z,17.73
2022-11-04T05:04:56.399Z,17.60
2022-11-04T05:05:37.155Z,16.63
2022-11-04T05:06:11.261Z,18.13
2022-11-04T05:06:51.195Z,19.35
2022-11-04T05:07:32.281Z,18.41
2022-11-04T05:08:14.159Z,19.89
2022-11-04T05:08:54.212Z,20.58
2022-11-04T05:09:34.185Z,18.69
2022-11-04T05:10:17.206Z,18.04
2022-11-04T05:10:58.166Z,17.90
2022-11-04T05:11:39.217Z,18.17
2022-11-04T05:12:19.184Z,18.86
2022-11-04T05:13:17.881Z,17.86
2022-11-04T05:13:58.172Z,17.69
2022-11-04T05:14:38.221Z,19.17
2022-11-04T05:15:18.132Z,19.89
2022-11-04T05:15:59.203Z,19.33
2022-11-04T05:16:40.891Z,19.58
2022-11-04T05:17:29.156Z,19.79
2022-11-04T05:18:03.362Z,20.49
2022-11-04T05:18:51.160Z,20.36
2022-11-04T05:19:24.895Z,19.61
2022-11-04T05:20:12.180Z,19.52
2022-11-04T05:20:45.879Z,20.26
2022-11-04T05:21:33.130Z,19.51
2022-11-04T05:22:07.007Z,18.67
2022-11-04T05:22:54.164Z,19.13
2022-11-04T05:23:27.836Z,18.39
2022-11-04T05:24:15.132Z,19.02
2022-11-04T05:24:48.831Z,19.64
2022-11-04T05:25:36.139Z,19.88
2022-11-04T05:26:09.952Z,18.21
2022-11-04T05:26:57.121Z,18.34
2022-11-04T05:27:30.821Z,19.20
2022-11-04T05:28:19.171Z,19.49
2022-11-04T05:28:53.030Z,18.85
2022-11-04T05:29:40.117Z,17.55
2022-11-04T05:30:15.412Z,17.85
2022-11-04T05:31:03.113Z,18.33
2022-11-04T05:31:37.046Z,17.29
2022-11-04T05:32:24.129Z,18.17
2022-11-04T05:33:01.518Z,18.27
2022-11-04T05:33:46.156Z,18.76
2022-11-04T05:34:20.242Z,19.48
2022-11-04T05:34:53.812Z,19.65
2022-11-04T05:35:34.121Z,20.17
2022-11-04T05:36:21.198Z,19.17
2022-11-04T05:36:54.801Z,19.24
2022-11-04T05:37:35.102Z,18.88
2022-11-04T05:38:09.230Z,17.46
2022-11-04T05:38:44.680Z,17.73
2022-11-04T05:39:24.167Z,17.84
2022-11-04T05:39:58.263Z,17.71
2022-11-04T05:40:32.034Z,18.41
2022-11-04T05:41:15.115Z,17.67
2022-11-04T05:41:49.197Z,17.58
2022-11-04T05:42:22.810Z,17.24
2022-11-04T05:43:06.308Z,18.35
2022-11-04T05:43:41.171Z,20.13
2022-11-04T05:44:15.789Z,19.90
2022-11-04T05:44:56.152Z,19.54
2022-11-04T05:45:30.177Z,18.45
2022-11-04T05:46:03.973Z,17.64
2022-11-04T05:46:45.128Z,18.02
2022-11-04T05:47:19.241Z,19.70
2022-11-04T05:48:04.518Z,17.63
2022-11-04T05:48:44.111Z,17.66
2022-11-04T05:49:18.176Z,18.23
2022-11-04T05:49:51.799Z,16.83
2022-11-04T05:50:33.129Z,18.73
2022-11-04T05:51:07.189Z,20.09
2022-11-04T05:51:40.860Z,20.64
2022-11-04T05:52:21.115Z,20.36
2022-11-04T05:52:55.184Z,19.64
2022-11-04T05:53:42.099Z,19.54
2022-11-04T05:54:16.189Z,20.58
2022-11-04T05:55:03.099Z,22.10
2022-11-04T05:55:44.195Z,22.01
2022-11-04T05:56:38.116Z,19.91
2022-11-04T05:57:32.112Z,21.21
2022-11-04T05:58:26.119Z,20.84
2022-11-04T05:59:20.116Z,21.63
2022-11-04T06:00:14.104Z,21.86
2022-11-04T06:01:01.122Z,19.39
2022-11-04T06:01:49.051Z,18.58
2022-11-04T06:02:36.166Z,21.01
2022-11-04T06:03:13.545Z,23.13
2022-11-04T06:04:05.104Z,21.41
2022-11-04T06:04:39.189Z,19.61
2022-11-04T06:05:26.099Z,22.04
2022-11-04T06:06:00.168Z,21.04
2022-11-04T06:06:43.123Z,19.24
2022-11-04T06:07:23.173Z,18.71
2022-11-04T06:08:04.100Z,19.34
2022-11-04T06:08:45.257Z,19.14
2022-11-04T06:09:25.072Z,20.05
2022-11-04T06:10:05.174Z,21.36
2022-11-04T06:10:46.085Z,20.02
2022-11-04T06:11:27.174Z,19.36
2022-11-04T06:12:07.116Z,18.17
2022-11-04T06:12:47.181Z,18.74
2022-11-04T06:13:27.083Z,19.25
2022-11-04T06:14:07.204Z,17.86
2022-11-04T06:14:49.073Z,17.45
2022-11-04T06:15:29.143Z,16.96
2022-11-04T06:16:10.066Z,17.66
2022-11-04T06:16:50.144Z,18.86
2022-11-04T06:17:30.128Z,18.77
2022-11-04T06:18:10.640Z,18.80
2022-11-04T06:18:51.083Z,18.66
2022-11-04T06:19:31.239Z,20.90
2022-11-04T06:20:13.095Z,21.16
2022-11-04T06:20:53.158Z,22.92
2022-11-04T06:21:39.145Z,20.42
2022-11-04T06:22:21.226Z,20.51
2022-11-04T06:23:01.547Z,18.33
2022-11-04T06:23:42.233Z,16.83
2022-11-04T06:24:22.088Z,17.02
2022-11-04T06:25:02.213Z,18.59
2022-11-04T06:25:43.088Z,17.00
2022-11-04T06:26:27.715Z,18.21
2022-11-04T06:27:09.067Z,17.31
2022-11-04T06:27:49.127Z,17.21
2022-11-04T06:28:29.080Z,18.38
2022-11-04T06:29:09.836Z,20.13
2022-11-04T06:29:50.047Z,19.44
2022-11-04T06:30:30.166Z,18.42
2022-11-04T06:31:13.081Z,18.35
2022-11-04T06:31:53.185Z,18.79
2022-11-04T06:32:33.085Z,18.50
2022-11-04T06:33:13.141Z,18.71
2022-11-04T06:33:54.093Z,18.27
2022-11-04T06:34:34.238Z,17.80
2022-11-04T06:35:15.058Z,17.06
2022-11-04T06:35:55.124Z,17.10
2022-11-04T06:36:35.080Z,17.73
2022-11-04T06:37:15.237Z,17.51
2022-11-04T06:37:55.085Z,18.98
2022-11-04T06:38:40.316Z,17.61
2022-11-04T06:39:20.148Z,15.89
2022-11-04T06:40:00.130Z,17.61
2022-11-04T06:40:41.060Z,19.02
2022-11-04T06:41:23.132Z,18.63
2022-11-04T06:42:03.168Z,16.40
2022-11-04T06:42:44.924Z,17.39
2022-11-04T06:43:25.109Z,18.86
2022-11-04T06:44:05.138Z,17.13
2022-11-04T06:44:45.092Z,16.60
2022-11-04T06:45:25.137Z,18.25
2022-11-04T06:46:08.052Z,17.29
2022-11-04T06:46:49.126Z,17.59
2022-11-04T06:47:30.047Z,18.88
2022-11-04T06:48:10.107Z,17.51
2022-11-04T06:48:50.048Z,18.05
2022-11-04T06:49:30.140Z,18.59
2022-11-04T06:50:11.098Z,18.44
2022-11-04T06:50:51.148Z,18.15
2022-11-04T06:51:32.067Z,17.15
2022-11-04T06:52:12.123Z,17.99
2022-11-04T06:52:52.062Z,19.27
2022-11-04T06:53:26.964Z,18.64
2022-11-04T06:54:15.035Z,19.46
2022-11-04T06:54:48.731Z,17.76
2022-11-04T06:55:37.055Z,17.92
2022-11-04T06:56:10.793Z,18.14
2022-11-04T06:56:59.067Z,18.40
2022-11-04T06:57:32.754Z,18.67
2022-11-04T06:58:20.060Z,17.15
2022-11-04T06:58:54.916Z,19.51
2022-11-04T06:59:42.062Z,20.59
2022-11-04T07:00:16.127Z,18.67
2022-11-04T07:01:00.187Z,16.84
2022-11-04T07:01:41.229Z,16.41
2022-11-04T07:02:19.933Z,17.09
2022-11-04T07:03:00.039Z,18.13
2022-11-04T07:03:34.113Z,18.90
2022-11-04T07:04:07.788Z,19.76
2022-11-04T07:04:48.103Z,17.41
2022-11-04T07:05:22.142Z,15.07
2022-11-04T07:05:55.864Z,15.70
2022-11-04T07:06:38.423Z,17.84
2022-11-04T07:07:15.111Z,18.27
2022-11-04T07:07:48.774Z,18.33
2022-11-04T07:08:29.029Z,16.83
2022-11-04T07:09:06.120Z,18.42
2022-11-04T07:09:39.855Z,18.04
2022-11-04T07:10:21.044Z,18.55
2022-11-04T07:10:55.094Z,18.39
2022-11-04T07:11:31.570Z,18.80
2022-11-04T07:12:12.073Z,20.17
2022-11-04T07:12:46.146Z,18.63
2022-11-04T07:13:19.748Z,18.88
2022-11-04T07:14:00.011Z,16.48
2022-11-04T07:14:34.109Z,15.27
2022-11-04T07:15:08.292Z,16.54
2022-11-04T07:15:48.035Z,17.16
2022-11-04T07:16:22.104Z,17.76
2022-11-04T07:16:55.726Z,17.34
2022-11-04T07:17:36.071Z,17.09
2022-11-04T07:18:10.565Z,17.40
2022-11-04T07:18:45.028Z,18.06
2022-11-04T07:19:26.027Z,17.79
2022-11-04T07:20:00.259Z,15.98
2022-11-04T07:20:36.280Z,16.90
2022-11-04T07:21:17.018Z,19.73
2022-11-04T07:21:51.088Z,18.10
2022-11-04T07:22:24.743Z,17.85
2022-11-04T07:23:06.074Z,19.29
2022-11-04T07:23:40.287Z,20.98
2022-11-04T07:24:13.718Z,20.05
2022-11-04T07:24:56.020Z,18.44
2022-11-04T07:25:30.131Z,18.17
2022-11-04T07:26:06.862Z,18.54
2022-11-04T07:26:49.074Z,19.27
2022-11-04T07:27:23.080Z,18.99
2022-11-04T07:27:59.517Z,16.63
2022-11-04T07:28:43.088Z,16.59
2022-11-04T07:29:17.075Z,15.91
2022-11-04T07:30:04.022Z,17.61
2022-11-04T07:30:38.076Z,18.20
2022-11-04T07:31:25.017Z,17.19
2022-11-04T07:31:59.068Z,18.35
2022-11-04T07:32:46.009Z,19.16
2022-11-04T07:33:20.152Z,19.94
2022-11-04T07:34:07.031Z,19.66
2022-11-04T07:34:41.060Z,19.95
2022-11-04T07:35:28.026Z,19.34
2022-11-04T07:36:02.157Z,19.85
2022-11-04T07:36:49.007Z,19.55
2022-11-04T07:37:23.077Z,18.05
2022-11-04T07:38:11.407Z,16.16
2022-11-04T07:38:45.240Z,16.75
2022-11-04T07:39:32.018Z,18.86
2022-11-04T07:40:06.074Z,19.61
2022-11-04T07:40:52.994Z,18.75
2022-11-04T07:41:27.091Z,17.14
2022-11-04T07:42:15.022Z,17.89
2022-11-04T07:42:49.084Z,17.92
2022-11-04T07:43:37.014Z,16.70
2022-11-04T07:44:11.111Z,17.88
2022-11-04T07:44:51.033Z,16.81
2022-11-04T07:45:31.060Z,16.50
2022-11-04T07:46:18.003Z,16.09
2022-11-04T07:46:58.059Z,17.44
2022-11-04T07:47:37.995Z,18.25
2022-11-04T07:48:18.098Z,18.60
2022-11-04T07:48:59.004Z,19.31
2022-11-04T07:49:39.156Z,19.21
2022-11-04T07:50:20.095Z,20.94
2022-11-04T07:51:05.127Z,17.94
2022-11-04T07:51:45.005Z,16.91
2022-11-04T07:52:25.127Z,16.65
2022-11-04T07:53:07.393Z,16.45
2022-11-04T07:53:48.083Z,18.74
2022-11-04T07:54:28.983Z,19.91
2022-11-04T07:55:10.003Z,19.76
2022-11-04T07:55:56.023Z,16.96
2022-11-04T07:56:36.064Z,17.65
2022-11-04T07:57:16.012Z,18.86
2022-11-04T07:57:56.144Z,16.63
2022-11-04T07:58:36.982Z,16.42
2022-11-04T07:59:17.054Z,15.36
2022-11-04T07:59:56.987Z,17.48
2022-11-04T08:00:37.054Z,17.08
2022-11-04T08:01:23.164Z,15.81
2022-11-04T08:02:03.188Z,16.50
2022-11-04T08:02:43.060Z,17.50
2022-11-04T08:03:23.103Z,17.49
2022-11-04T08:04:02.977Z,19.29
2022-11-04T08:04:44.045Z,18.84
2022-11-04T08:05:24.987Z,16.80
2022-11-04T08:06:07.098Z,17.76
2022-11-04T08:06:47.006Z,18.91
2022-11-04T08:07:28.054Z,17.19
2022-11-04T08:08:07.996Z,15.81
2022-11-04T08:08:53.938Z,17.33
2022-11-04T08:09:34.983Z,18.17
2022-11-04T08:10:16.062Z,16.14
2022-11-04T08:11:03.000Z,15.88
2022-11-04T08:11:43.051Z,16.06
2022-11-04T08:12:23.004Z,14.94
2022-11-04T08:13:03.550Z,15.14
2022-11-04T08:13:44.972Z,15.54
2022-11-04T08:14:25.055Z,16.20
2022-11-04T08:15:07.991Z,16.44
2022-11-04T08:15:48.090Z,16.54
2022-11-04T08:16:34.310Z,16.90
2022-11-04T08:17:15.064Z,15.88
2022-11-04T08:17:54.985Z,14.40
2022-11-04T08:18:35.098Z,15.54
2022-11-04T08:19:15.958Z,15.27
2022-11-04T08:19:56.071Z,14.45
2022-11-04T08:20:35.947Z,14.50
2022-11-04T08:21:17.098Z,15.91
2022-11-04T08:21:56.977Z,15.35
2022-11-04T08:22:37.057Z,16.88
2022-11-04T08:23:19.123Z,16.05
2022-11-04T08:23:59.102Z,15.27
2022-11-04T08:24:39.966Z,15.71
2022-11-04T08:25:20.064Z,16.70
2022-11-04T08:26:00.971Z,17.46
2022-11-04T08:26:41.017Z,20.31
2022-11-04T08:27:21.975Z,21.75
2022-11-04T08:28:02.042Z,15.24
2022-11-04T08:28:41.985Z,15.94
2022-11-04T08:29:22.080Z,16.09
2022-11-04T08:30:02.961Z,15.31
2022-11-04T08:30:43.032Z,14.10
2022-11-04T08:31:32.956Z,16.09
2022-11-04T08:32:15.023Z,15.30
2022-11-04T08:32:54.945Z,15.14
2022-11-04T08:33:37.014Z,14.13
2022-11-04T08:34:16.994Z,15.70
2022-11-04T08:34:57.014Z,18.10
2022-11-04T08:35:41.004Z,17.30
2022-11-04T08:36:38.026Z,16.74
2022-11-04T08:37:22.960Z,20.95
2022-11-04T08:38:03.018Z,20.67
2022-11-04T08:38:43.958Z,18.45
2022-11-04T08:39:30.971Z,19.10
2022-11-04T08:40:24.959Z,21.25
2022-11-04T08:41:21.969Z,20.81
2022-11-04T08:42:15.951Z,19.67
2022-11-04T08:43:10.419Z,18.79
2022-11-04T08:44:06.952Z,17.75
2022-11-04T08:44:57.964Z,16.08
2022-11-04T08:45:33.802Z,16.40
2022-11-04T08:46:21.935Z,18.06
2022-11-04T08:46:56.025Z,16.80
2022-11-04T08:47:42.944Z,17.83
2022-11-04T08:48:17.017Z,17.76
2022-11-04T08:49:08.724Z,17.86
2022-11-04T08:49:46.007Z,17.65
2022-11-04T08:50:26.960Z,18.63
2022-11-04T08:51:06.994Z,16.11
2022-11-04T08:51:52.943Z,16.13
2022-11-04T08:52:33.024Z,15.80
2022-11-04T08:53:12.928Z,15.66
2022-11-04T08:53:53.012Z,16.13
2022-11-04T08:54:33.955Z,14.60
2022-11-04T08:55:15.097Z,15.36
2022-11-04T08:55:55.970Z,17.08
2022-11-04T08:56:40.048Z,16.60
2022-11-04T08:57:19.937Z,18.08
2022-11-04T08:58:00.068Z,16.14
2022-11-04T08:58:39.933Z,16.14
2022-11-04T08:59:20.068Z,16.44
2022-11-04T09:00:00.939Z,16.74
2022-11-04T09:00:41.098Z,17.36
2022-11-04T09:01:21.990Z,17.90
2022-11-04T09:02:02.102Z,16.55
2022-11-04T09:02:41.943Z,17.48
2022-11-04T09:03:23.081Z,19.74
2022-11-04T09:04:03.025Z,20.40
2022-11-04T09:04:43.139Z,20.76
2022-11-04T09:05:23.917Z,23.81
2022-11-04T09:06:06.009Z,22.89
2022-11-04T09:06:49.015Z,20.51
2022-11-04T09:07:29.076Z,20.33
2022-11-04T09:08:11.946Z,19.39
2022-11-04T09:08:57.098Z,19.14
2022-11-04T09:09:36.927Z,18.21
2022-11-04T09:10:18.104Z,17.65
2022-11-04T09:10:57.922Z,17.08
2022-11-04T09:11:41.025Z,17.95
2022-11-04T09:12:20.923Z,17.50
2022-11-04T09:13:01.038Z,16.92
2022-11-04T09:13:40.986Z,17.64
2022-11-04T09:14:23.128Z,16.49
2022-11-04T09:15:03.920Z,17.70
2022-11-04T09:15:45.023Z,18.09
2022-11-04T09:16:25.924Z,16.96
2022-11-04T09:17:06.006Z,15.93
2022-11-04T09:17:46.922Z,16.10
2022-11-04T09:18:26.970Z,15.07
2022-11-04T09:19:07.901Z,16.51
2022-11-04T09:19:48.029Z,16.31
2022-11-04T09:20:28.920Z,19.00
2022-11-04T09:21:12.064Z,16.94
2022-11-04T09:21:51.908Z,15.88
2022-11-04T09:22:32.016Z,16.56
2022-11-04T09:23:13.106Z,17.14
2022-11-04T09:23:53.018Z,16.69
2022-11-04T09:24:32.919Z,15.84
2022-11-04T09:25:13.970Z,15.94
2022-11-04T09:25:54.946Z,15.81
2022-11-04T09:26:37.050Z,15.86
2022-11-04T09:27:17.906Z,16.74
2022-11-04T09:27:58.027Z,17.06
2022-11-04T09:28:37.949Z,14.31
2022-11-04T09:29:17.980Z,14.63
2022-11-04T09:29:57.933Z,14.94
2022-11-04T09:30:38.026Z,17.59
2022-11-04T09:31:22.899Z,17.17
2022-11-04T09:32:03.174Z,16.71
2022-11-04T09:32:42.907Z,19.73
2022-11-04T09:33:24.147Z,16.80
2022-11-04T09:34:04.926Z,15.02
2022-11-04T09:34:45.022Z,14.85
2022-11-04T09:35:25.921Z,16.25
2022-11-04T09:36:06.030Z,16.15
2022-11-04T09:36:46.002Z,15.80
2022-11-04T09:37:25.981Z,15.57
2022-11-04T09:38:07.887Z,17.73
2022-11-04T09:38:49.701Z,17.02
2022-11-04T09:39:30.920Z,16.11
2022-11-04T09:40:12.063Z,16.11
2022-11-04T09:40:54.886Z,17.24
2022-11-04T09:42:18.030Z,16.46
2022-11-04T09:43:38.891Z,18.15
2022-11-04T09:46:16.917Z,15.65
2022-11-04T09:47:19.281Z,15.80
2022-11-04T09:48:20.886Z,16.16
2022-11-04T09:49:16.936Z,16.48
2022-11-04T09:50:12.917Z,19.31
2022-11-04T09:51:26.161Z,17.73
2022-11-04T09:52:33.943Z,16.29
2022-11-04T09:53:33.926Z,15.94